Time;durP1;ratioP1;P1;durP2;ratioP2;P2;SDS_P1;SDS_P2;PMS_P1;PMS_P2;Temp;Humidity;BMP_temperature;BMP_pressure;BME280_temperature;BME280_humidity;BME280_pressure;Samples;Min_cycle;Max_cycle;Signal;HPM_P1;HPM_P2
2020/12/19 00:02:07;;;;;;;18.17;10.17;;;6.50;91.90;;;;;;5026349;28;20637;-72
2020/12/19 00:04:33;;;;;;;19.93;9.30;;;6.50;92.00;;;;;;5014030;28;20218;-70
2020/12/19 00:06:59;;;;;;;20.30;8.80;;;6.50;92.10;;;;;;5007306;28;21034;-72
2020/12/19 00:09:25;;;;;;;15.73;8.77;;;6.50;92.00;;;;;;5017920;28;20424;-70
2020/12/19 00:11:54;;;;;;;14.43;8.90;;;6.50;91.80;;;;;;5025089;28;20657;-71
2020/12/19 00:14:20;;;;;;;18.20;8.37;;;6.50;91.70;;;;;;5026030;28;20316;-71
2020/12/19 00:16:46;;;;;;;16.77;8.57;;;6.60;91.70;;;;;;5026511;28;20507;-71
2020/12/19 00:19:12;;;;;;;17.87;9.20;;;6.50;91.70;;;;;;5026678;28;20499;-71
2020/12/19 00:21:38;;;;;;;20.50;9.73;;;6.60;91.70;;;;;;5026428;28;20511;-72
2020/12/19 00:24:05;;;;;;;18.10;9.53;;;6.50;91.80;;;;;;5020254;28;20264;-73
2020/12/19 00:26:36;;;;;;;17.40;8.80;;;6.50;91.70;;;;;;5006531;28;20651;-72
2020/12/19 00:29:04;;;;;;;16.47;8.30;;;6.60;91.60;;;;;;5024773;28;20507;-72
2020/12/19 00:31:30;;;;;;;15.13;8.50;;;6.50;91.70;;;;;;5030987;28;20451;-72
2020/12/19 00:33:55;;;;;;;14.50;7.63;;;6.50;91.50;;;;;;5024790;28;21182;-73
2020/12/19 00:36:21;;;;;;;14.90;8.07;;;6.60;91.60;;;;;;5029982;28;20189;-72
2020/12/19 00:38:47;;;;;;;11.23;6.97;;;6.60;91.30;;;;;;5030800;28;20970;-76
2020/12/19 00:41:17;;;;;;;14.90;9.13;;;6.60;91.30;;;;;;5030374;28;20748;-74
2020/12/19 00:43:43;;;;;;;15.20;8.33;;;6.60;91.10;;;;;;5030595;28;20205;-76
2020/12/19 00:46:17;;;;;;;16.63;9.40;;;6.60;91.30;;;;;;5030822;28;20853;-75
2020/12/19 00:48:43;;;;;;;17.93;8.30;;;6.60;91.30;;;;;;5030058;28;20203;-74
2020/12/19 00:51:23;;;;;;;13.03;7.60;;;6.60;91.40;;;;;;5018768;28;20534;-76
2020/12/19 00:53:50;;;;;;;16.20;7.80;;;6.60;91.60;;;;;;5017450;28;20423;-74
2020/12/19 00:56:27;;;;;;;12.60;7.20;;;6.60;91.70;;;;;;5028701;28;20981;-74
2020/12/19 00:58:54;;;;;;;14.43;7.73;;;6.60;91.60;;;;;;5029092;28;20446;-74
2020/12/19 01:01:23;;;;;;;12.90;6.57;;;6.50;91.60;;;;;;5028057;28;20479;-75
2020/12/19 01:03:49;;;;;;;14.40;6.60;;;6.50;91.60;;;;;;5023413;28;20928;-73
2020/12/19 01:06:17;;;;;;;19.30;7.47;;;6.50;91.60;;;;;;5020834;28;20439;-73
2020/12/19 01:08:45;;;;;;;15.40;8.00;;;6.40;91.80;;;;;;5029936;28;20428;-74
2020/12/19 01:11:18;;;;;;;12.17;7.07;;;6.40;92.00;;;;;;5016497;28;20502;-75
2020/12/19 01:13:45;;;;;;;14.60;7.50;;;6.30;92.10;;;;;;5030649;28;20430;-75
2020/12/19 01:16:19;;;;;;;12.83;7.20;;;6.30;92.30;;;;;;5031922;28;20863;-73
2020/12/19 01:18:46;;;;;;;13.33;7.17;;;6.30;92.40;;;;;;5030719;28;20930;-73
2020/12/19 01:21:21;;;;;;;15.87;7.57;;;6.30;92.40;;;;;;5031870;28;20475;-75
2020/12/19 01:23:47;;;;;;;14.93;7.53;;;6.20;92.50;;;;;;5031755;28;20416;-75
2020/12/19 01:26:13;;;;;;;13.03;7.10;;;6.30;92.60;;;;;;5031092;28;20525;-75
2020/12/19 01:28:40;;;;;;;13.60;6.70;;;6.30;92.40;;;;;;5029660;28;21305;-72
2020/12/19 01:31:09;;;;;;;12.50;6.80;;;6.30;92.40;;;;;;5030381;28;20863;-75
2020/12/19 01:33:35;;;;;;;14.13;7.70;;;6.30;92.30;;;;;;5021006;28;20432;-74
2020/12/19 01:36:02;;;;;;;15.40;7.17;;;6.30;92.30;;;;;;5026086;28;20522;-72
2020/12/19 01:38:27;;;;;;;13.93;7.63;;;6.30;92.30;;;;;;5028011;28;20439;-76
2020/12/19 01:40:55;;;;;;;13.30;7.90;;;6.30;92.10;;;;;;5027734;28;20480;-73
2020/12/19 01:43:21;;;;;;;14.87;7.20;;;6.40;92.00;;;;;;5019473;28;20313;-71
2020/12/19 01:45:48;;;;;;;12.60;7.13;;;6.40;91.90;;;;;;5026093;28;20432;-71
2020/12/19 01:48:17;;;;;;;13.60;7.43;;;6.40;91.70;;;;;;5021258;28;20425;-72
2020/12/19 01:50:42;;;;;;;13.20;7.13;;;6.40;91.60;;;;;;5013921;28;20459;-74
2020/12/19 01:53:08;;;;;;;14.37;6.80;;;6.40;91.60;;;;;;5029856;28;20472;-70
2020/12/19 01:55:34;;;;;;;15.00;6.20;;;6.40;91.60;;;;;;5028470;28;20192;-72
2020/12/19 01:58:00;;;;;;;14.10;7.40;;;6.40;91.60;;;;;;5021833;28;20224;-73
2020/12/19 02:00:25;;;;;;;13.20;6.97;;;6.40;91.60;;;;;;5031348;28;21095;-73
2020/12/19 02:02:51;;;;;;;10.57;6.80;;;6.40;91.60;;;;;;5032246;28;20213;-72
2020/12/19 02:05:17;;;;;;;12.43;7.30;;;6.30;91.60;;;;;;5032077;28;20189;-73
2020/12/19 02:07:43;;;;;;;10.97;6.20;;;6.20;91.80;;;;;;5041446;28;20205;-74
2020/12/19 02:10:09;;;;;;;12.90;7.23;;;6.20;91.80;;;;;;5032499;28;20270;-74
2020/12/19 02:12:35;;;;;;;13.17;6.40;;;6.20;91.70;;;;;;5030547;28;20518;-72
2020/12/19 02:15:00;;;;;;;15.30;6.40;;;6.10;91.80;;;;;;5030934;28;20199;-73
2020/12/19 02:17:26;;;;;;;13.63;7.03;;;6.10;92.00;;;;;;5021035;28;20201;-73
2020/12/19 02:19:52;;;;;;;14.40;7.00;;;6.10;91.90;;;;;;5029514;28;20668;-72
2020/12/19 02:22:18;;;;;;;11.60;6.73;;;6.00;92.10;;;;;;5031771;28;20205;-75
2020/12/19 02:24:43;;;;;;;14.60;7.27;;;6.00;92.20;;;;;;5030234;28;20193;-76
2020/12/19 02:27:09;;;;;;;11.40;6.47;;;5.90;92.60;;;;;;5031911;28;20191;-76
2020/12/19 02:29:35;;;;;;;17.50;7.93;;;5.90;92.70;;;;;;5031696;28;20216;-72
2020/12/19 02:32:02;;;;;;;12.17;6.73;;;6.00;92.60;;;;;;5029909;28;20244;-73
2020/12/19 02:34:28;;;;;;;10.70;6.30;;;6.00;92.60;;;;;;5026941;28;20201;-75
2020/12/19 02:36:54;;;;;;;12.20;6.60;;;6.00;92.50;;;;;;5010490;28;20432;-72
2020/12/19 02:39:20;;;;;;;12.30;6.77;;;5.90;92.50;;;;;;5028138;28;20428;-71
2020/12/19 02:41:47;;;;;;;9.70;6.20;;;5.90;92.70;;;;;;5031000;28;20471;-74
2020/12/19 02:44:18;;;;;;;11.60;6.80;;;5.90;92.80;;;;;;5029436;28;20249;-73
2020/12/19 02:46:45;;;;;;;13.50;6.50;;;5.80;92.80;;;;;;5032972;28;20431;-74
2020/12/19 02:49:11;;;;;;;14.97;7.10;;;5.80;92.90;;;;;;5040045;28;20485;-72
2020/12/19 02:51:37;;;;;;;11.40;6.80;;;5.80;93.00;;;;;;5041925;28;20471;-74
2020/12/19 02:54:03;;;;;;;13.23;6.50;;;5.80;93.00;;;;;;5043676;28;20458;-74
2020/12/19 02:56:29;;;;;;;11.10;6.30;;;5.80;93.00;;;;;;5044744;28;20534;-72
2020/12/19 02:58:55;;;;;;;11.20;6.67;;;5.80;93.20;;;;;;5044465;28;20519;-75
2020/12/19 03:01:31;;;;;;;14.27;6.80;;;5.80;93.30;;;;;;5039964;28;20224;-73
2020/12/19 03:03:58;;;;;;;11.03;6.00;;;5.70;93.40;;;;;;5043000;28;20454;-74
2020/12/19 03:06:24;;;;;;;15.40;7.03;;;5.80;93.30;;;;;;5042996;28;20412;-72
2020/12/19 03:08:50;;;;;;;15.30;7.20;;;5.80;93.20;;;;;;5043820;28;20502;-72
2020/12/19 03:11:16;;;;;;;16.10;6.20;;;5.80;93.30;;;;;;5041549;28;20204;-73
2020/12/19 03:13:41;;;;;;;13.27;6.30;;;5.80;93.20;;;;;;5027830;28;20193;-74
2020/12/19 03:16:07;;;;;;;13.30;6.30;;;5.80;93.20;;;;;;5040391;28;20431;-74
2020/12/19 03:18:33;;;;;;;12.70;7.00;;;5.80;93.10;;;;;;5039204;28;20801;-74
2020/12/19 03:20:59;;;;;;;13.57;6.80;;;5.80;92.90;;;;;;5036864;28;20240;-74
2020/12/19 03:23:24;;;;;;;14.47;6.47;;;5.80;93.10;;;;;;5037348;28;20181;-71
2020/12/19 03:25:50;;;;;;;13.60;6.70;;;5.70;93.00;;;;;;5024541;28;20182;-71
2020/12/19 03:28:19;;;;;;;10.77;6.10;;;5.70;93.10;;;;;;5038174;28;20209;-72
2020/12/19 03:30:45;;;;;;;11.17;6.07;;;5.70;93.10;;;;;;5039135;28;20447;-72
2020/12/19 03:33:11;;;;;;;14.00;6.30;;;5.70;92.90;;;;;;5042489;28;20458;-72
2020/12/19 03:35:39;;;;;;;15.13;6.23;;;5.70;92.90;;;;;;5041837;28;20428;-73
2020/12/19 03:38:06;;;;;;;13.60;6.67;;;5.70;92.90;;;;;;5042396;28;20191;-73
2020/12/19 03:40:33;;;;;;;11.93;5.80;;;5.70;92.90;;;;;;5073882;28;20475;-75
2020/12/19 03:42:58;;;;;;;11.93;5.57;;;5.70;92.90;;;;;;5041638;28;20442;-73
2020/12/19 03:45:24;;;;;;;11.27;6.10;;;5.70;92.90;;;;;;5028569;28;20448;-75
2020/12/19 03:47:50;;;;;;;10.83;5.20;;;5.70;92.90;;;;;;5029083;28;20212;-74
2020/12/19 03:50:16;;;;;;;13.73;5.70;;;5.60;92.90;;;;;;5025078;28;20216;-75
2020/12/19 03:52:41;;;;;;;12.40;5.90;;;5.60;93.30;;;;;;5025495;28;20185;-71
2020/12/19 03:55:07;;;;;;;12.83;5.60;;;5.60;93.40;;;;;;5038640;28;20209;-74
2020/12/19 03:57:33;;;;;;;12.93;6.57;;;5.70;93.30;;;;;;5041683;28;20195;-72
2020/12/19 03:59:59;;;;;;;10.03;5.80;;;5.60;93.30;;;;;;5028172;28;20241;-76
2020/12/19 04:02:25;;;;;;;9.43;5.43;;;5.60;93.30;;;;;;5040398;28;20220;-75
2020/12/19 04:04:50;;;;;;;14.73;6.00;;;5.50;93.50;;;;;;5041573;28;20465;-73
2020/12/19 04:07:16;;;;;;;11.97;6.23;;;5.50;93.50;;;;;;5042202;28;20427;-75
2020/12/19 04:09:42;;;;;;;13.90;7.40;;;5.40;93.60;;;;;;5041083;28;20185;-72
2020/12/19 04:12:08;;;;;;;12.80;6.23;;;5.40;93.70;;;;;;5041003;28;20292;-73
2020/12/19 04:14:39;;;;;;;8.43;5.07;;;5.40;93.80;;;;;;5042119;28;20634;-73
2020/12/19 04:17:10;;;;;;;10.77;6.63;;;5.30;93.80;;;;;;5050887;28;20420;-75
2020/12/19 04:19:37;;;;;;;11.57;6.17;;;5.30;93.90;;;;;;5048085;28;20431;-75
2020/12/19 04:22:04;;;;;;;12.30;6.73;;;5.20;94.10;;;;;;5042618;28;20851;-73
2020/12/19 04:24:30;;;;;;;11.30;5.80;;;5.20;94.20;;;;;;5036234;28;20435;-74
2020/12/19 04:26:56;;;;;;;12.53;5.90;;;5.10;94.30;;;;;;5039798;28;20424;-75
2020/12/19 04:29:22;;;;;;;9.80;5.60;;;5.10;94.40;;;;;;5038702;28;20426;-72
2020/12/19 04:31:48;;;;;;;13.67;6.43;;;5.10;94.60;;;;;;5038151;28;20288;-73
2020/12/19 04:34:14;;;;;;;11.33;6.03;;;5.10;94.60;;;;;;5030300;28;20185;-74
2020/12/19 04:36:39;;;;;;;10.47;5.20;;;5.10;94.70;;;;;;5028368;28;20193;-71
2020/12/19 04:39:05;;;;;;;14.43;5.93;;;5.10;94.70;;;;;;5029180;28;20424;-72
2020/12/19 04:41:33;;;;;;;11.00;5.50;;;5.10;94.80;;;;;;5028690;28;21029;-73
2020/12/19 04:44:02;;;;;;;10.90;5.47;;;5.10;94.70;;;;;;5031225;28;20213;-74
2020/12/19 04:46:30;;;;;;;11.50;5.30;;;5.20;94.70;;;;;;5028848;28;20427;-74
2020/12/19 04:48:58;;;;;;;11.37;6.17;;;5.10;94.70;;;;;;5028980;28;20567;-72
2020/12/19 04:51:28;;;;;;;12.67;5.57;;;5.10;94.70;;;;;;5027449;28;20455;-75
2020/12/19 04:53:54;;;;;;;12.50;6.10;;;5.10;94.80;;;;;;5028379;28;20455;-73
2020/12/19 04:56:23;;;;;;;11.20;6.17;;;5.10;94.80;;;;;;5028053;28;20482;-72
2020/12/19 04:58:53;;;;;;;12.40;6.20;;;5.10;94.80;;;;;;5027598;28;20447;-73
2020/12/19 05:01:19;;;;;;;13.30;6.37;;;5.10;94.80;;;;;;5028412;28;20476;-74
2020/12/19 05:03:49;;;;;;;11.47;6.33;;;5.10;94.80;;;;;;5028315;28;20431;-73
2020/12/19 05:06:25;;;;;;;10.07;5.60;;;5.00;94.90;;;;;;5026763;28;20193;-74
2020/12/19 05:08:52;;;;;;;10.77;5.83;;;5.00;95.00;;;;;;5009355;28;20504;-74
2020/12/19 05:11:19;;;;;;;14.30;6.10;;;5.00;95.00;;;;;;5008769;28;20453;-74
2020/12/19 05:13:45;;;;;;;11.33;6.97;;;5.00;95.00;;;;;;5023086;28;20427;-74
2020/12/19 05:16:12;;;;;;;12.13;5.97;;;5.00;95.00;;;;;;5027247;28;20954;-74
2020/12/19 05:18:39;;;;;;;11.97;5.30;;;5.00;95.10;;;;;;5047587;28;20945;-75
2020/12/19 05:21:06;;;;;;;14.90;6.80;;;5.00;95.10;;;;;;5033550;28;20821;-73
2020/12/19 05:23:51;;;;;;;16.37;8.57;;;4.90;95.10;;;;;;5012643;28;20507;-74
2020/12/19 05:26:18;;;;;;;17.90;10.13;;;4.90;95.30;;;;;;5010622;28;20439;-73
2020/12/19 05:28:44;;;;;;;16.73;10.03;;;4.80;95.40;;;;;;5023307;28;20177;-72
2020/12/19 05:31:11;;;;;;;15.40;9.60;;;4.80;95.50;;;;;;5031304;28;20451;-72
2020/12/19 05:33:37;;;;;;;16.93;8.63;;;4.80;95.40;;;;;;5032438;28;20427;-73
2020/12/19 05:36:04;;;;;;;21.37;8.57;;;4.80;95.60;;;;;;5032952;28;20443;-72
2020/12/19 05:38:31;;;;;;;17.47;9.27;;;4.80;95.70;;;;;;5031227;28;20193;-74
2020/12/19 05:40:59;;;;;;;20.80;9.60;;;4.70;95.80;;;;;;5032139;28;20565;-73
2020/12/19 05:43:25;;;;;;;13.10;7.10;;;4.70;95.90;;;;;;5032923;28;20798;-73
2020/12/19 05:45:51;;;;;;;9.83;6.13;;;4.70;95.90;;;;;;5031554;28;20424;-73
2020/12/19 05:48:17;;;;;;;14.47;7.93;;;4.70;95.90;;;;;;5031846;28;20473;-73
2020/12/19 05:50:43;;;;;;;20.13;7.83;;;4.70;95.90;;;;;;5031514;28;20946;-74
2020/12/19 05:53:09;;;;;;;12.60;6.83;;;4.70;95.80;;;;;;5031468;28;20185;-75
2020/12/19 05:55:36;;;;;;;9.98;4.90;;;4.60;95.80;;;;;;5031364;28;20435;-74
2020/12/19 05:58:04;;;;;;;13.02;5.75;;;4.60;95.90;;;;;;5032481;28;20181;-73
2020/12/19 06:00:31;;;;;;;11.80;6.70;;;4.60;95.90;;;;;;5030477;28;20216;-72
2020/12/19 06:03:00;;;;;;;13.13;6.10;;;4.60;96.10;;;;;;5032149;28;20519;-74
2020/12/19 06:05:28;;;;;;;10.63;5.90;;;4.50;96.10;;;;;;5044649;28;20430;-74
2020/12/19 06:07:56;;;;;;;12.32;5.72;;;4.50;96.30;;;;;;5031793;28;20848;-73
2020/12/19 06:10:22;;;;;;;12.00;6.33;;;4.50;96.40;;;;;;5031737;28;20221;-72
2020/12/19 06:13:11;;;;;;;11.43;5.60;;;4.50;96.50;;;;;;5031163;28;20462;-73
2020/12/19 06:16:10;;;;;;;11.63;6.00;;;4.50;96.60;;;;;;5024624;28;20212;-72
2020/12/19 06:18:47;;;;;;;15.82;9.15;;;4.50;96.60;;;;;;5035459;28;20494;-73
2020/12/19 06:21:14;;;;;;;15.27;7.57;;;4.40;96.60;;;;;;5037616;28;20217;-74
2020/12/19 06:23:41;;;;;;;16.88;10.65;;;4.40;96.80;;;;;;5042124;28;20263;-72
2020/12/19 06:26:09;;;;;;;16.40;9.00;;;4.40;96.80;;;;;;5036148;28;20185;-71
2020/12/19 06:28:43;;;;;;;14.47;7.83;;;4.40;96.70;;;;;;5031796;28;20426;-71
2020/12/19 06:31:14;;;;;;;12.80;7.80;;;4.40;96.70;;;;;;5017042;28;20439;-72
2020/12/19 06:33:41;;;;;;;16.70;8.27;;;4.40;96.70;;;;;;5030445;28;20420;-73
2020/12/19 06:36:16;;;;;;;17.10;7.60;;;4.40;96.60;;;;;;5030720;28;20268;-73
2020/12/19 06:38:50;;;;;;;13.00;6.90;;;4.40;96.60;;;;;;5031132;28;20434;-73
2020/12/19 06:41:48;;;;;;;12.23;6.40;;;4.40;96.60;;;;;;5037709;28;20275;-71
2020/12/19 06:44:16;;;;;;;12.57;6.70;;;4.40;96.60;;;;;;5009644;28;20672;-73
2020/12/19 06:46:42;;;;;;;12.80;6.80;;;4.30;96.60;;;;;;5009672;28;20572;-72
2020/12/19 06:49:24;;;;;;;19.53;8.67;;;4.30;96.80;;;;;;5026576;28;20589;-72
2020/12/19 06:52:07;;;;;;;15.30;8.10;;;4.30;96.90;;;;;;5030213;28;20200;-72
2020/12/19 06:54:34;;;;;;;16.50;10.03;;;4.20;96.90;;;;;;5029593;28;20189;-72
2020/12/19 06:57:01;;;;;;;19.58;10.50;;;4.20;97.00;;;;;;5030311;28;20435;-71
2020/12/19 06:59:28;;;;;;;21.35;11.13;;;4.20;97.00;;;;;;5030266;28;20185;-74
2020/12/19 07:02:13;;;;;;;19.57;11.40;;;4.10;97.00;;;;;;5029719;28;20284;-72
2020/12/19 07:04:39;;;;;;;18.48;10.82;;;4.10;96.90;;;;;;5027963;28;20521;-74
2020/12/19 07:07:07;;;;;;;21.20;12.43;;;4.10;97.00;;;;;;5030599;28;20270;-71
2020/12/19 07:09:33;;;;;;;16.70;9.10;;;4.10;97.00;;;;;;5030142;28;20420;-72
2020/12/19 07:11:59;;;;;;;17.90;9.93;;;4.10;97.00;;;;;;5029758;28;20455;-72
2020/12/19 07:14:25;;;;;;;15.40;8.20;;;4.20;97.10;;;;;;5029607;28;20486;-72
2020/12/19 07:16:54;;;;;;;18.23;9.37;;;4.20;97.10;;;;;;5013747;28;20677;-73
2020/12/19 07:19:21;;;;;;;17.50;8.40;;;4.10;97.10;;;;;;5014584;28;20216;-72
2020/12/19 07:21:47;;;;;;;17.85;8.80;;;4.20;97.20;;;;;;5011868;28;20468;-72
2020/12/19 07:24:13;;;;;;;15.60;8.57;;;4.20;97.20;;;;;;5024256;28;20312;-73
2020/12/19 07:26:39;;;;;;;14.07;7.30;;;4.20;97.20;;;;;;5030893;28;20419;-74
2020/12/19 07:29:19;;;;;;;16.00;8.70;;;4.20;97.10;;;;;;5030138;28;20430;-75
2020/12/19 07:31:47;;;;;;;15.47;8.10;;;4.20;97.10;;;;;;5029365;28;20431;-72
2020/12/19 07:34:12;;;;;;;15.00;7.60;;;4.30;97.10;;;;;;5028840;28;20423;-72
2020/12/19 07:36:40;;;;;;;14.20;7.97;;;4.30;97.00;;;;;;5029892;28;20778;-75
2020/12/19 07:39:08;;;;;;;15.40;7.67;;;4.30;97.10;;;;;;5029979;28;20188;-73
2020/12/19 07:41:35;;;;;;;15.07;7.60;;;4.30;97.10;;;;;;5029314;28;20602;-74
2020/12/19 07:44:12;;;;;;;15.57;8.18;;;4.30;97.10;;;;;;5027730;28;20448;-72
2020/12/19 07:46:58;;;;;;;15.05;8.48;;;4.40;97.00;;;;;;5029460;28;20176;-73
2020/12/19 07:49:30;;;;;;;15.77;8.90;;;4.40;96.90;;;;;;5015802;28;20208;-75
2020/12/19 07:52:10;;;;;;;15.18;8.52;;;4.40;96.80;;;;;;5028931;28;20209;-74
2020/12/19 07:54:37;;;;;;;12.23;7.20;;;4.40;96.90;;;;;;5027128;28;20232;-75
2020/12/19 07:57:04;;;;;;;14.30;7.63;;;4.40;96.80;;;;;;5029237;28;20428;-74
2020/12/19 07:59:30;;;;;;;14.77;7.97;;;4.40;96.80;;;;;;5029322;28;20473;-74
2020/12/19 08:02:00;;;;;;;14.27;7.25;;;4.40;96.70;;;;;;5025928;28;20483;-71
2020/12/19 08:04:26;;;;;;;15.57;8.13;;;4.50;96.70;;;;;;5021004;28;20200;-74
2020/12/19 08:06:52;;;;;;;17.80;8.47;;;4.50;96.60;;;;;;5013200;28;20812;-72
2020/12/19 08:09:21;;;;;;;17.07;8.47;;;4.50;96.60;;;;;;5014009;28;20182;-73
2020/12/19 08:11:49;;;;;;;16.33;7.90;;;4.50;96.40;;;;;;5023239;28;20588;-74
2020/12/19 08:14:19;;;;;;;19.00;8.57;;;4.60;96.30;;;;;;5019603;28;20816;-74
2020/12/19 08:16:46;;;;;;;13.40;7.93;;;4.60;96.10;;;;;;5029095;28;20518;-72
2020/12/19 08:19:17;;;;;;;16.53;8.57;;;4.60;95.90;;;;;;5029637;28;20439;-75
2020/12/19 08:21:45;;;;;;;14.73;8.90;;;4.60;95.80;;;;;;5029351;28;20567;-73
2020/12/19 08:24:11;;;;;;;13.57;8.40;;;4.70;95.50;;;;;;5028206;28;20427;-74
2020/12/19 08:26:37;;;;;;;18.87;9.57;;;4.80;95.20;;;;;;5029607;28;20825;-75
2020/12/19 08:29:07;;;;;;;15.57;8.77;;;4.80;95.00;;;;;;5028613;28;20431;-72
2020/12/19 08:31:37;;;;;;;14.80;8.50;;;4.80;94.80;;;;;;5029236;28;20232;-76
2020/12/19 08:34:09;;;;;;;17.33;8.68;;;4.80;94.70;;;;;;5022931;28;20469;-75
2020/12/19 08:36:35;;;;;;;14.03;8.43;;;4.90;94.60;;;;;;5028848;28;20196;-74
2020/12/19 08:39:17;;;;;;;14.73;9.20;;;4.90;94.60;;;;;;5029163;28;20431;-73
2020/12/19 08:41:44;;;;;;;17.07;9.60;;;4.90;94.60;;;;;;5027641;28;20279;-74
2020/12/19 08:44:24;;;;;;;15.30;9.27;;;5.00;94.50;;;;;;5028741;28;20435;-74
2020/12/19 08:47:04;;;;;;;17.20;9.50;;;5.00;94.40;;;;;;5029190;28;20511;-72
2020/12/19 08:49:31;;;;;;;17.50;10.37;;;5.10;94.30;;;;;;5030800;28;21042;-74
2020/12/19 08:51:57;;;;;;;19.60;9.13;;;5.10;94.20;;;;;;5030972;28;20529;-75
2020/12/19 08:54:23;;;;;;;22.40;9.60;;;5.20;94.20;;;;;;5030605;28;20439;-73
2020/12/19 08:56:51;;;;;;;14.87;10.03;;;5.20;94.10;;;;;;5033142;28;20425;-73
2020/12/19 08:59:27;;;;;;;20.77;10.23;;;5.30;93.80;;;;;;5034269;28;20420;-74
2020/12/19 09:01:56;;;;;;;28.87;10.77;;;5.30;93.80;;;;;;5035511;28;20562;-73
2020/12/19 09:04:23;;;;;;;21.40;9.73;;;5.30;93.80;;;;;;5033012;28;20411;-74
2020/12/19 09:06:55;;;;;;;20.37;9.60;;;5.40;93.70;;;;;;5037556;28;20423;-74
2020/12/19 09:09:29;;;;;;;21.13;10.10;;;5.40;93.60;;;;;;5026531;28;20432;-74
2020/12/19 09:12:15;;;;;;;16.70;9.50;;;5.50;93.70;;;;;;5023650;28;20494;-73
2020/12/19 09:14:40;;;;;;;18.00;10.07;;;5.60;93.60;;;;;;5034605;28;21000;-73
2020/12/19 09:17:06;;;;;;;17.27;9.57;;;5.60;93.60;;;;;;5036379;28;20427;-74
2020/12/19 09:19:33;;;;;;;17.70;10.20;;;5.70;93.50;;;;;;5036050;28;20224;-75
2020/12/19 09:22:01;;;;;;;21.03;11.10;;;5.70;93.40;;;;;;5034066;28;20691;-73
2020/12/19 09:24:27;;;;;;;19.40;12.03;;;5.70;93.40;;;;;;5033271;28;20424;-75
2020/12/19 09:26:53;;;;;;;18.87;11.00;;;5.70;93.30;;;;;;5034368;28;20491;-73
2020/12/19 09:29:19;;;;;;;17.40;9.50;;;5.80;93.20;;;;;;5033003;28;20511;-72
2020/12/19 09:31:45;;;;;;;19.53;10.27;;;5.80;93.20;;;;;;5032867;28;20738;-73
2020/12/19 09:34:11;;;;;;;17.50;10.07;;;5.80;93.20;;;;;;5032504;28;20428;-73
2020/12/19 09:36:37;;;;;;;17.67;10.80;;;5.80;93.20;;;;;;5024861;28;20470;-72
2020/12/19 09:39:04;;;;;;;20.07;11.30;;;5.80;93.20;;;;;;5026671;28;20391;-74
2020/12/19 09:41:30;;;;;;;19.03;10.93;;;5.90;93.30;;;;;;5031829;28;20471;-74
2020/12/19 09:43:56;;;;;;;18.33;11.00;;;5.90;93.20;;;;;;5032106;28;20444;-72
2020/12/19 09:46:22;;;;;;;21.13;11.20;;;6.00;93.10;;;;;;5030900;28;20931;-73
2020/12/19 09:48:47;;;;;;;24.17;12.17;;;6.10;93.00;;;;;;5031202;28;20661;-73
2020/12/19 09:51:13;;;;;;;20.53;10.97;;;6.20;92.80;;;;;;5012916;28;20217;-75
2020/12/19 09:53:39;;;;;;;19.60;10.80;;;6.30;92.50;;;;;;5012729;28;20421;-73
2020/12/19 09:56:05;;;;;;;18.47;10.97;;;6.40;92.30;;;;;;5020441;28;20188;-73
2020/12/19 09:58:31;;;;;;;23.13;11.37;;;6.40;92.10;;;;;;5032270;28;20296;-75
2020/12/19 10:00:57;;;;;;;22.40;11.53;;;6.50;91.80;;;;;;5031001;28;20476;-73
2020/12/19 10:03:23;;;;;;;22.27;10.17;;;6.60;91.60;;;;;;5018552;28;20448;-74
2020/12/19 10:05:49;;;;;;;23.13;11.90;;;6.70;91.50;;;;;;5031310;28;20459;-72
2020/12/19 10:08:15;;;;;;;19.40;11.47;;;6.80;91.20;;;;;;5031620;28;20205;-72
2020/12/19 10:10:44;;;;;;;19.70;11.00;;;6.80;90.70;;;;;;5031373;28;20219;-74
2020/12/19 10:13:11;;;;;;;23.37;12.17;;;6.90;90.50;;;;;;5033986;28;20200;-73
2020/12/19 10:15:37;;;;;;;21.43;11.50;;;6.90;90.30;;;;;;5042503;28;20439;-74
2020/12/19 10:18:03;;;;;;;21.23;11.27;;;6.90;90.30;;;;;;5032235;28;20458;-74
2020/12/19 10:20:28;;;;;;;19.87;11.73;;;7.00;90.20;;;;;;5023375;28;20300;-74
2020/12/19 10:22:54;;;;;;;19.83;12.07;;;7.10;90.00;;;;;;5015775;28;20441;-74
2020/12/19 10:25:20;;;;;;;19.90;11.67;;;7.10;89.70;;;;;;5032206;28;20191;-73
2020/12/19 10:27:46;;;;;;;20.73;11.80;;;7.20;89.30;;;;;;5031321;28;20201;-76
2020/12/19 10:30:11;;;;;;;20.53;10.70;;;7.20;89.00;;;;;;5032487;28;20267;-76
2020/12/19 10:32:37;;;;;;;20.43;11.07;;;7.30;88.90;;;;;;5033566;28;20216;-75
2020/12/19 10:35:06;;;;;;;19.83;10.00;;;7.30;88.90;;;;;;5030962;28;20193;-75
2020/12/19 10:37:33;;;;;;;17.53;10.20;;;7.30;88.90;;;;;;5024161;28;20680;-76
2020/12/19 10:39:59;;;;;;;19.53;9.80;;;7.40;88.00;;;;;;5032198;28;20431;-74
2020/12/19 10:42:25;;;;;;;18.90;10.63;;;7.50;87.30;;;;;;5031277;28;20497;-74
2020/12/19 10:44:51;;;;;;;22.10;10.60;;;7.70;86.90;;;;;;5033400;28;20443;-73
2020/12/19 10:47:17;;;;;;;19.20;9.47;;;8.00;85.30;;;;;;5032746;28;20428;-73
2020/12/19 10:49:42;;;;;;;15.23;8.83;;;8.20;84.30;;;;;;5033224;28;20416;-76
2020/12/19 10:52:08;;;;;;;14.60;9.70;;;8.50;83.70;;;;;;5035553;28;20744;-76
2020/12/19 10:54:34;;;;;;;18.27;9.50;;;8.60;82.80;;;;;;5054668;28;20209;-76
2020/12/19 10:57:00;;;;;;;16.07;9.57;;;9.00;80.60;;;;;;5036383;28;20185;-73
2020/12/19 10:59:27;;;;;;;20.90;8.93;;;9.40;79.30;;;;;;5036297;28;20897;-75
2020/12/19 11:01:53;;;;;;;17.73;10.40;;;9.70;76.70;;;;;;5037073;28;20985;-77
2020/12/19 11:04:18;;;;;;;19.03;10.47;;;9.90;75.70;;;;;;5034774;28;20424;-74
2020/12/19 11:06:44;;;;;;;22.40;10.63;;;9.90;75.40;;;;;;5030312;28;20750;-75
2020/12/19 11:09:11;;;;;;;21.30;10.37;;;9.90;75.40;;;;;;5030462;28;20188;-73
2020/12/19 11:11:37;;;;;;;17.50;10.23;;;10.00;75.50;;;;;;5028487;28;20224;-72
2020/12/19 11:14:03;;;;;;;16.13;9.40;;;9.90;75.70;;;;;;5029978;28;20435;-76
2020/12/19 11:16:29;;;;;;;18.93;10.07;;;9.90;75.50;;;;;;5029703;28;20189;-74
2020/12/19 11:18:56;;;;;;;18.17;9.00;;;9.90;75.10;;;;;;5030404;28;20211;-76
2020/12/19 11:21:22;;;;;;;21.70;9.80;;;9.90;74.60;;;;;;5028659;28;20471;-75
2020/12/19 11:23:49;;;;;;;17.47;9.20;;;9.90;73.00;;;;;;5029284;28;21016;-75
2020/12/19 11:26:20;;;;;;;15.83;9.23;;;9.90;73.50;;;;;;5030178;28;20428;-72
2020/12/19 11:28:48;;;;;;;17.43;9.67;;;9.90;74.20;;;;;;5030499;28;20474;-74
2020/12/19 11:31:14;;;;;;;18.73;9.40;;;10.00;74.00;;;;;;5030531;28;20443;-76
2020/12/19 11:33:40;;;;;;;16.37;8.90;;;9.90;74.20;;;;;;5030592;28;20862;-75
2020/12/19 11:36:06;;;;;;;16.40;9.30;;;9.90;74.30;;;;;;5030529;28;20431;-76
2020/12/19 11:38:32;;;;;;;13.60;8.97;;;10.00;73.90;;;;;;5031008;28;20512;-75
2020/12/19 11:40:57;;;;;;;12.13;8.40;;;10.00;74.20;;;;;;5022656;28;20237;-74
2020/12/19 11:43:23;;;;;;;15.90;9.27;;;10.10;74.20;;;;;;5018515;28;20276;-73
2020/12/19 11:45:49;;;;;;;13.03;8.40;;;10.20;74.00;;;;;;5027137;28;20204;-75
2020/12/19 11:48:15;;;;;;;12.80;7.53;;;10.30;73.30;;;;;;5028917;28;20256;-76
2020/12/19 11:50:41;;;;;;;15.77;8.33;;;10.50;72.90;;;;;;5012177;28;20511;-74
2020/12/19 11:53:07;;;;;;;16.10;7.97;;;10.60;72.30;;;;;;5017872;28;20559;-75
2020/12/19 11:55:32;;;;;;;12.70;7.70;;;10.80;71.10;;;;;;5017381;28;20200;-75
2020/12/19 11:57:58;;;;;;;13.50;7.70;;;11.10;70.10;;;;;;5033611;28;20615;-75
2020/12/19 12:00:24;;;;;;;13.10;7.73;;;11.30;70.10;;;;;;5020323;28;20213;-74
2020/12/19 12:02:50;;;;;;;17.70;8.50;;;11.50;69.90;;;;;;5028572;28;20554;-75
2020/12/19 12:05:15;;;;;;;13.13;7.43;;;11.70;68.60;;;;;;5027206;28;20189;-74
2020/12/19 12:07:41;;;;;;;18.77;8.93;;;11.80;66.40;;;;;;5029268;28;20180;-76
2020/12/19 12:10:07;;;;;;;18.40;9.03;;;11.90;66.10;;;;;;5038757;28;21031;-75
2020/12/19 12:12:32;;;;;;;17.60;9.27;;;12.00;66.60;;;;;;5021871;28;20208;-75
2020/12/19 12:14:58;;;;;;;19.27;9.10;;;12.00;66.30;;;;;;5033599;28;20185;-76
2020/12/19 12:17:24;;;;;;;15.47;7.83;;;12.00;66.70;;;;;;5034817;28;20177;-74
2020/12/19 12:19:49;;;;;;;12.20;7.50;;;12.10;66.00;;;;;;5036154;28;20571;-74
2020/12/19 12:22:15;;;;;;;13.80;7.97;;;12.10;65.40;;;;;;5035470;28;20293;-75
2020/12/19 12:24:41;;;;;;;12.30;8.10;;;12.20;66.00;;;;;;5029415;28;20211;-76
2020/12/19 12:27:07;;;;;;;16.40;7.83;;;12.20;66.00;;;;;;5039457;28;20272;-76
2020/12/19 12:29:32;;;;;;;17.53;9.30;;;12.30;65.10;;;;;;5029468;28;20190;-75
2020/12/19 12:31:58;;;;;;;19.33;9.87;;;12.30;65.10;;;;;;5033773;28;20205;-75
2020/12/19 12:34:24;;;;;;;15.83;8.90;;;12.20;66.10;;;;;;5029700;28;20259;-75
2020/12/19 12:36:50;;;;;;;15.10;8.57;;;12.10;66.00;;;;;;5014480;28;20460;-74
2020/12/19 12:39:15;;;;;;;23.63;9.80;;;12.10;66.70;;;;;;5016699;28;20204;-74
2020/12/19 12:41:45;;;;;;;21.87;11.93;;;12.00;66.60;;;;;;5033421;28;20232;-75
2020/12/19 12:44:11;;;;;;;16.40;9.37;;;11.80;67.00;;;;;;5032865;28;20209;-76
2020/12/19 12:46:37;;;;;;;18.90;10.20;;;11.80;67.60;;;;;;5032731;28;20438;-75